• Join FlightAware (Why Join?)
  • Login
  • US Flag 
10:45AM EDT


 

Airport Tracker/Info


-or-


 

Live Flight TrackerFlight Track Log ✈ UAL4476 ✈ 27-Apr-2013 ✈ KCLE - KBOS

Flight Track Log - Related Links

Times and Time Zones

All times are in EDT time to prevent confusion due to time zone crossing. See the UAL4476 flight status page for this flight to view local times or setup timezone preferences in your user account.

Time Position Orientation Groundspeed Altitude Reporting Facility
EDT Latitude Longitude Course Direction KTS MPH feet Rate Location/Type
08:44AM 41.3917 -81.8867 282° West 177 204 1,800  Level Cleveland Center
08:46AM 41.4131 -82.0228 282° West 233 268 5,500 1,980 Climbing Cleveland Center
08:47AM 41.4842 -82.0022 12° North 203 234 7,500 2,160 Climbing Cleveland Center
08:48AM 41.5311 -81.9228 52° Northeast 191 220 9,900 1,860 Climbing Cleveland Center
08:49AM 41.5842 -81.8350 51° Northeast 256 295 11,300 1,200 Climbing Cleveland Center
08:50AM 41.6436 -81.7417 50° Northeast 311 358 12,400 960 Climbing Cleveland Center
08:51AM 41.6964 -81.6481 53° Northeast 337 388 13,300 960 Climbing Cleveland Center
08:52AM 41.7642 -81.5436 49° Northeast 362 417 14,400 1,260 Climbing Cleveland Center
08:53AM 41.8256 -81.4303 54° Northeast 369 425 15,900 1,500 Climbing Cleveland Center
08:54AM 41.8556 -81.3025 72° East 358 412 17,500 1,320 Climbing Cleveland Center
08:55AM 41.8814 -81.1519 77° East 358 412 18,600 1,260 Climbing Cleveland Center
08:56AM 41.9028 -81.0156 78° East 370 426 20,100 1,500 Climbing Cleveland Center
08:57AM 41.9242 -80.8817 78° East 370 426 21,700 1,500 Climbing Cleveland Center
08:58AM 41.9453 -80.7450 78° East 370 426 23,200 1,500 Climbing Cleveland Center
08:59AM 41.9661 -80.6083 78° East 375 432 24,700 1,260 Climbing Cleveland Center
09:00AM 41.9892 -80.4686 77° East 375 432 25,800 1,080 Climbing Cleveland Center
09:01AM 42.0119 -80.3289 78° East 375 432 26,900 1,020 Climbing Cleveland Center
09:02AM 42.0322 -80.1861 79° East 380 437 27,900 900 Climbing Cleveland Center
09:03AM 42.0525 -80.0575 78° East 385 443 28,800 900 Climbing Cleveland Center
09:04AM 42.0747 -79.9117 78° East 391 450 29,800 960 Climbing Cleveland Center
09:05AM 42.0947 -79.7661 79° East 391 450 30,800 1,020 Climbing Cleveland Center
09:06AM 42.1186 -79.6231 77° East 391 450 31,900 1,020 Climbing Cleveland Center
09:07AM 42.1381 -79.4717 80° East 396 456 32,900 540 Climbing Cleveland Center
09:08AM 42.1614 -79.3169 78° East 401 461 33,000  Climbing Cleveland Center
09:09AM 42.1844 -79.1542 79° East 422 486 33,000  Level Cleveland Center
09:10AM 42.2075 -78.9881 79° East 437 503 33,000  Level Cleveland Center
09:11AM 42.2278 -78.8167 81° East 449 517 33,000  Level Cleveland Center
09:12AM 42.2500 -78.6478 80° East 454 522 33,000  Level Cleveland Center
09:13AM 42.2700 -78.4758 81° East 454 522 33,000  Level Cleveland Center
09:14AM 42.2956 -78.2842 80° East 462 532 33,000  Level Cleveland Center
09:15AM 42.3150 -78.1150 81° East 462 532 33,000  Level Cleveland Center
09:16AM 42.3364 -77.9456 80° East 467 537 33,000  Level Cleveland Center
09:17AM 42.3572 -77.7733 81° East 467 537 33,000  Level Cleveland Center
09:18AM 42.3758 -77.6008 82° East 467 537 33,000  Level Cleveland Center
09:19AM 42.3942 -77.4314 82° East 467 537 33,000  Level Cleveland Center
09:20AM 42.4219 -77.1858 81° East 470 541 33,000  Level Boston Center
09:21AM 42.4417 -77.0128 81° East 470 541 33,000  Level Boston Center
09:22AM 42.4608 -76.8425 81° East 465 535 33,000  Level Boston Center
09:23AM 42.4800 -76.6719 81° East 460 529 33,000  Level Boston Center
09:24AM 42.4967 -76.4983 83° East 465 535 33,000  Level Boston Center
09:25AM 42.5128 -76.3331 82° East 454 522 33,000  Level Boston Center
09:26AM 42.5331 -76.1653 81° East 448 516 33,000  Level Boston Center
09:27AM 42.5489 -76.0000 83° East 443 510 33,000  Level Boston Center
09:29AM 42.5647 -75.8261 83° East 450 518 33,000  Level Boston Center
09:30AM 42.5850 -75.6211 82° East 455 524 33,000  Level Boston Center
09:31AM 42.6022 -75.4528 82° East 455 524 33,000  Level Boston Center
09:32AM 42.6192 -75.2814 82° East 455 524 33,000  Level Boston Center
09:33AM 42.6389 -75.0706 83° East 462 532 33,000  Level Boston Center
09:34AM 42.6531 -74.8989 84° East 462 532 33,000  Level Boston Center
09:35AM 42.6669 -74.7303 84° East 462 532 33,000  Level Boston Center
09:36AM 42.6831 -74.5500 83° East 462 532 33,000  Level Boston Center
09:37AM 42.6944 -74.3808 85° East 462 532 33,000  Level Boston Center
09:38AM 42.6867 -74.2083 93° East 457 526 33,000  Level Boston Center
09:39AM 42.6747 -74.0328 95° East 463 533 33,000  Level Boston Center
09:40AM 42.6625 -73.8575 95° East 463 533 33,000  Level Boston Center
09:41AM 42.6564 -73.6681 92° East 463 533 33,000  Level Boston Center
09:42AM 42.6456 -73.4931 95° East 463 533 33,000 -540 Level Boston Center
09:43AM 42.6344 -73.3206 95° East 463 533 32,000 -1,200 Descending Boston Center
09:44AM 42.6253 -73.1625 94° East 453 521 30,600 -1,740 Descending Boston Center
09:45AM 42.6136 -72.9958 95° East 439 505 28,600 -2,040 Descending Boston Center
09:46AM 42.5997 -72.8264 96° East 444 511 26,600 -2,040 Descending Boston Center
09:47AM 42.5897 -72.6600 95° East 444 511 24,600 -2,040 Descending Boston Center
09:48AM 42.5797 -72.4881 94° East 444 511 22,600 -2,100 Descending Boston Center
09:49AM 42.5669 -72.3244 96° East 444 511 20,500 -2,040 Descending Boston Center
09:50AM 42.5544 -72.1864 97° East 413 475 18,600 -1,860 Descending Boston Center
09:51AM 42.5414 -72.0175 96° East 403 464 16,800 -2,280 Descending Boston Center
09:52AM 42.5283 -71.8850 98° East 403 464 14,100 -2,880 Descending Boston Center
09:53AM 42.5150 -71.7303 97° East 385 443 11,100 -1,560 Descending Boston Center
09:54AM 42.5036 -71.6150 98° East 358 412 11,000 -600 Descending Boston Center
09:55AM 42.4922 -71.4911 97° East 316 364 9,900 -1,080 Descending Boston Center
09:56AM 42.4831 -71.3983 98° East 280 322 8,900 -1,200 Descending Boston Center
09:57AM 42.4428 -71.3092 121° Southeast 254 292 7,600 -1,500 Descending Boston Center
09:58AM 42.3922 -71.2678 149° Southeast 228 262 6,000 -1,500 Descending Boston Center
09:59AM 42.3356 -71.2267 152° Southeast 225 259 4,700 -1,260 Descending Boston Center
10:00AM 42.3078 -71.1656 122° Southeast 210 242 3,500 -1,260 Descending Boston Center
10:01AM 42.3000 -71.0833 97° East 189 217 2,200 -1,140 Descending KA90
10:02AM 42.3167 -71.0333 66° East 155 178 1,300 -1,020 Descending KA90
10:03AM 42.3500 -71.0167 20° North 126 145 200 7,560 Descending KA90
10:05AM 42.3861 -70.9194 63° Northeast 144 166 24,000 7,920 Climbing Boston Center
10:06AM 42.4064 -70.8767 57° Northeast 144 166 24,000  Level Boston Center
10:08AM 42.3630 -71.0064 North  Level Estimated
10:15AM 42.3630 -71.0064 North  Level Estimated
10:16AM 42.3630 -71.0064 North  Level Estimated
10:17AM 42.3630 -71.0064 North  Level Estimated